Time;durP1;ratioP1;P1;durP2;ratioP2;P2;SDS_P1;SDS_P2;PMS_P1;PMS_P2;Temp;Humidity;BMP_temperature;BMP_pressure;BME280_temperature;BME280_humidity;BME280_pressure;Samples;Min_cycle;Max_cycle;Signal;HPM_P1;HPM_P2
2022/12/16 00:00:26;;;;;;;101.45;48.50;;;-3.10;99.90;;;;;;2087590;28;20031;-70
2022/12/16 00:01:27;;;;;;;103.53;49.53;;;-3.10;99.90;;;;;;2087924;28;20502;-70
2022/12/16 00:02:28;;;;;;;101.40;48.97;;;-3.10;99.90;;;;;;2097023;28;20421;-69
2022/12/16 00:03:29;;;;;;;105.20;50.05;;;-3.10;99.90;;;;;;2096783;28;20056;-69
2022/12/16 00:04:30;;;;;;;100.63;49.67;;;-3.10;99.90;;;;;;2096752;28;20116;-69
2022/12/16 00:05:30;;;;;;;103.35;48.67;;;-3.10;99.90;;;;;;2096618;28;20024;-69
2022/12/16 00:06:33;;;;;;;100.55;49.03;;;-3.10;99.90;;;;;;2096608;28;20028;-69
2022/12/16 00:07:34;;;;;;;103.47;49.42;;;-3.10;99.90;;;;;;2095755;28;20032;-69
2022/12/16 00:08:37;;;;;;;103.18;49.15;;;-3.10;99.90;;;;;;2095421;28;20064;-70
2022/12/16 00:09:38;;;;;;;104.40;49.78;;;-3.10;99.90;;;;;;2096467;28;20414;-70
2022/12/16 00:10:53;;;;;;;103.68;50.53;;;-3.10;99.90;;;;;;2096362;28;20029;-69
2022/12/16 00:11:54;;;;;;;106.85;50.83;;;-3.10;99.90;;;;;;2087945;28;20115;-70
2022/12/16 00:12:55;;;;;;;108.20;49.95;;;-3.10;99.90;;;;;;2087894;28;20029;-70
2022/12/16 00:13:56;;;;;;;103.40;50.00;;;-3.10;99.90;;;;;;2096550;28;20479;-70
2022/12/16 00:14:56;;;;;;;100.18;48.28;;;-3.10;99.90;;;;;;2096803;28;20032;-69
2022/12/16 00:15:58;;;;;;;103.43;49.05;;;-3.10;99.90;;;;;;2096882;28;20059;-69
2022/12/16 00:16:58;;;;;;;100.18;47.45;;;-3.10;99.90;;;;;;2096634;28;20032;-70
2022/12/16 00:17:59;;;;;;;99.57;49.15;;;-3.10;99.90;;;;;;2096905;28;20028;-69
2022/12/16 00:19:00;;;;;;;103.15;48.70;;;-3.10;99.90;;;;;;2095978;28;20041;-69
2022/12/16 00:20:02;;;;;;;104.63;50.78;;;-3.10;99.90;;;;;;2095879;28;20024;-70
2022/12/16 00:21:03;;;;;;;112.63;51.95;;;-3.10;99.90;;;;;;2096015;28;20020;-68
2022/12/16 00:22:04;;;;;;;109.72;53.00;;;-3.10;99.90;;;;;;2096595;28;20614;-68
2022/12/16 00:23:05;;;;;;;107.82;52.22;;;-3.10;99.90;;;;;;2096505;28;20036;-71
2022/12/16 00:24:06;;;;;;;111.40;52.50;;;-3.10;99.90;;;;;;2096703;28;20024;-69
2022/12/16 00:25:07;;;;;;;111.60;52.45;;;-3.00;99.90;;;;;;2095990;28;20035;-69
2022/12/16 00:26:08;;;;;;;108.60;52.00;;;-3.00;99.90;;;;;;2096522;28;20398;-69
2022/12/16 00:30:00;;;;;;;109.93;50.25;;;-3.00;99.90;;;;;;2096702;28;20443;-70
2022/12/16 00:31:00;;;;;;;111.55;50.50;;;-3.00;99.90;;;;;;2096422;28;20765;-70
2022/12/16 00:32:01;;;;;;;118.45;52.58;;;-3.00;99.90;;;;;;2096427;28;20016;-69
2022/12/16 00:33:03;;;;;;;110.60;51.58;;;-3.00;99.90;;;;;;2096262;28;20496;-70
2022/12/16 00:34:03;;;;;;;112.15;52.75;;;-3.00;99.90;;;;;;2096982;28;20572;-70
2022/12/16 00:35:04;;;;;;;116.30;53.42;;;-3.00;99.90;;;;;;2096794;28;20074;-70
2022/12/16 00:36:06;;;;;;;115.40;54.88;;;-3.00;99.90;;;;;;2096396;28;20036;-69
2022/12/16 00:37:07;;;;;;;117.20;55.08;;;-3.00;99.90;;;;;;2099548;28;20032;-69
2022/12/16 00:38:08;;;;;;;119.70;55.22;;;-2.90;99.90;;;;;;2099767;28;20545;-69
2022/12/16 00:39:10;;;;;;;114.22;53.22;;;-3.00;99.90;;;;;;2090684;28;20090;-69
2022/12/16 00:40:11;;;;;;;114.10;53.60;;;-2.90;99.90;;;;;;2096310;28;20025;-69
2022/12/16 00:41:11;;;;;;;116.25;53.75;;;-2.90;99.90;;;;;;2095599;28;20093;-69
2022/12/16 00:42:12;;;;;;;110.22;53.20;;;-2.90;99.90;;;;;;2096066;28;20024;-70
2022/12/16 00:43:13;;;;;;;113.70;53.97;;;-2.90;99.90;;;;;;2095969;28;20443;-70
2022/12/16 00:44:13;;;;;;;118.63;54.33;;;-2.90;99.90;;;;;;2096128;28;20546;-70
2022/12/16 00:45:14;;;;;;;115.95;56.03;;;-2.90;99.90;;;;;;2096485;28;20123;-70
2022/12/16 00:46:16;;;;;;;120.05;56.05;;;-2.90;99.90;;;;;;2096379;28;20025;-70
2022/12/16 00:47:16;;;;;;;116.00;55.95;;;-3.00;99.90;;;;;;2095614;28;20458;-70
2022/12/16 00:48:18;;;;;;;116.38;54.47;;;-2.90;99.90;;;;;;2095409;28;20020;-69
2022/12/16 00:49:18;;;;;;;113.57;54.13;;;-2.90;99.90;;;;;;2096075;28;20024;-70
2022/12/16 00:50:19;;;;;;;117.40;55.13;;;-2.90;99.90;;;;;;2096147;28;20028;-70
2022/12/16 00:51:20;;;;;;;117.38;55.85;;;-2.90;99.90;;;;;;2096278;28;20024;-70
2022/12/16 00:52:21;;;;;;;111.75;53.50;;;-2.90;99.90;;;;;;2096427;28;20390;-70
2022/12/16 00:53:23;;;;;;;112.25;53.78;;;-2.90;99.90;;;;;;2095429;28;20032;-70
2022/12/16 00:54:24;;;;;;;114.47;54.63;;;-2.90;99.90;;;;;;2095707;28;20028;-68
2022/12/16 00:55:25;;;;;;;114.00;53.08;;;-3.00;99.90;;;;;;2096383;28;20111;-69
2022/12/16 00:56:25;;;;;;;116.63;54.35;;;-2.90;99.90;;;;;;2087304;28;20028;-69
2022/12/16 00:57:26;;;;;;;111.43;52.63;;;-2.90;99.90;;;;;;2086523;28;20025;-69
2022/12/16 00:58:27;;;;;;;115.55;53.60;;;-2.90;99.90;;;;;;2096182;28;20032;-68
2022/12/16 00:59:27;;;;;;;110.90;52.80;;;-3.00;99.90;;;;;;2096330;28;20029;-69
2022/12/16 01:00:28;;;;;;;108.22;51.72;;;-3.00;99.90;;;;;;2096554;28;20108;-69
2022/12/16 01:01:29;;;;;;;109.00;52.35;;;-3.00;99.90;;;;;;2096040;28;20503;-69
2022/12/16 01:02:30;;;;;;;109.85;52.13;;;-3.00;99.90;;;;;;2096736;28;20083;-69
2022/12/16 01:03:31;;;;;;;113.18;52.33;;;-3.00;99.90;;;;;;2096310;28;20112;-69
2022/12/16 01:04:32;;;;;;;109.40;51.95;;;-3.00;99.90;;;;;;2096212;28;20117;-69
2022/12/16 01:05:32;;;;;;;105.55;51.65;;;-3.00;99.90;;;;;;2097589;28;20031;-69
2022/12/16 01:06:33;;;;;;;103.47;49.03;;;-2.90;99.90;;;;;;2097950;28;20483;-69
2022/12/16 01:07:34;;;;;;;105.55;49.88;;;-2.90;99.90;;;;;;2097294;28;20024;-69
2022/12/16 01:08:34;;;;;;;103.00;50.22;;;-2.90;99.90;;;;;;2097248;28;20027;-69
2022/12/16 01:09:35;;;;;;;100.93;49.25;;;-2.90;99.90;;;;;;2089012;28;20139;-69
2022/12/16 01:10:36;;;;;;;105.50;50.40;;;-2.90;99.90;;;;;;2088592;28;20039;-70
2022/12/16 01:11:36;;;;;;;104.90;49.85;;;-2.90;99.90;;;;;;2099617;28;20513;-69
2022/12/16 01:12:37;;;;;;;109.13;51.72;;;-2.90;99.90;;;;;;2101476;28;20028;-69
2022/12/16 01:13:38;;;;;;;109.50;52.58;;;-3.00;99.90;;;;;;2102526;28;20032;-69
2022/12/16 01:14:39;;;;;;;107.50;50.75;;;-3.00;99.90;;;;;;2101481;28;20047;-69
2022/12/16 01:15:39;;;;;;;110.40;52.03;;;-2.90;99.90;;;;;;2101837;28;20104;-70
2022/12/16 01:16:40;;;;;;;109.55;52.00;;;-2.90;99.90;;;;;;2101663;28;20060;-69
2022/12/16 01:17:41;;;;;;;110.35;53.22;;;-3.00;99.90;;;;;;2101956;28;20179;-69
2022/12/16 01:18:42;;;;;;;114.78;53.08;;;-2.90;99.90;;;;;;2092281;28;20625;-69
2022/12/16 01:19:43;;;;;;;113.32;52.38;;;-2.90;99.90;;;;;;2087884;28;20035;-69
2022/12/16 01:20:43;;;;;;;107.45;52.42;;;-3.00;99.90;;;;;;2096289;28;20051;-69
2022/12/16 01:21:44;;;;;;;108.43;52.22;;;-2.90;99.90;;;;;;2095970;28;20107;-68
2022/12/16 01:22:45;;;;;;;105.32;50.15;;;-2.90;99.90;;;;;;2096345;28;20033;-69
2022/12/16 01:23:46;;;;;;;101.80;50.08;;;-2.90;99.90;;;;;;2096277;28;20107;-69
2022/12/16 01:24:47;;;;;;;104.90;50.55;;;-2.90;99.90;;;;;;2096009;28;20024;-69
2022/12/16 01:25:54;;;;;;;102.30;49.17;;;-2.90;99.90;;;;;;2095490;28;20708;-69
2022/12/16 01:26:55;;;;;;;108.88;52.08;;;-2.90;99.90;;;;;;2088099;28;20028;-68
2022/12/16 01:27:55;;;;;;;106.20;50.08;;;-2.90;99.90;;;;;;2087104;28;20518;-69
2022/12/16 01:28:56;;;;;;;101.22;49.53;;;-2.90;99.90;;;;;;2095617;28;20175;-69
2022/12/16 01:29:57;;;;;;;105.47;50.38;;;-2.90;99.90;;;;;;2096335;28;20718;-68
2022/12/16 01:31:02;;;;;;;102.80;50.13;;;-3.00;99.90;;;;;;2095418;28;20056;-68
2022/12/16 01:32:03;;;;;;;101.43;49.80;;;-2.90;99.90;;;;;;2095700;28;20062;-69
2022/12/16 01:33:04;;;;;;;108.22;51.72;;;-2.90;99.90;;;;;;2096262;28;20580;-69
2022/12/16 01:34:05;;;;;;;114.07;53.33;;;-2.90;99.90;;;;;;2095458;28;20028;-68
2022/12/16 01:35:06;;;;;;;123.18;57.80;;;-2.90;99.90;;;;;;2095484;28;20067;-69
2022/12/16 01:36:08;;;;;;;127.10;58.15;;;-2.90;99.90;;;;;;2096224;28;20096;-69
2022/12/16 01:37:12;;;;;;;131.25;59.28;;;-2.90;99.90;;;;;;2087063;28;20051;-69
2022/12/16 01:38:12;;;;;;;126.85;59.45;;;-2.90;99.90;;;;;;2087291;28;20064;-69
2022/12/16 01:39:13;;;;;;;119.68;57.85;;;-2.90;99.90;;;;;;2096345;28;20062;-69
2022/12/16 01:40:18;;;;;;;117.10;54.97;;;-2.90;99.90;;;;;;2097583;28;20040;-69
2022/12/16 01:41:19;;;;;;;122.63;56.25;;;-2.90;99.90;;;;;;2099831;28;20055;-69
2022/12/16 01:42:21;;;;;;;115.70;55.58;;;-2.90;99.90;;;;;;2095898;28;20116;-69
2022/12/16 01:43:28;;;;;;;121.28;56.28;;;-2.90;99.90;;;;;;2095817;28;20532;-69
2022/12/16 01:44:29;;;;;;;116.95;55.60;;;-3.00;99.90;;;;;;2096018;28;20032;-69
2022/12/16 01:45:35;;;;;;;115.82;54.38;;;-3.00;99.90;;;;;;2096151;28;20042;-69
2022/12/16 01:46:37;;;;;;;115.40;53.88;;;-2.90;99.90;;;;;;2096019;28;20044;-69
2022/12/16 01:47:38;;;;;;;130.05;58.05;;;-3.00;99.90;;;;;;2095859;28;20028;-69
2022/12/16 01:48:59;;;;;;;122.40;56.38;;;-3.00;99.90;;;;;;2096296;28;20039;-69
2022/12/16 01:50:09;;;;;;;119.93;55.63;;;-3.00;99.90;;;;;;2096331;28;20017;-69
2022/12/16 01:51:25;;;;;;;123.28;56.83;;;-3.00;99.90;;;;;;2095852;28;20037;-68
2022/12/16 01:52:32;;;;;;;118.05;54.95;;;-3.00;99.90;;;;;;2095967;28;20035;-69
2022/12/16 01:53:34;;;;;;;117.68;54.47;;;-3.00;99.90;;;;;;2096085;28;20078;-69
2022/12/16 01:54:48;;;;;;;115.63;54.47;;;-3.00;99.90;;;;;;2095964;28;20024;-69
2022/12/16 01:55:51;;;;;;;107.32;50.92;;;-3.00;99.90;;;;;;2096036;28;20103;-71
2022/12/16 01:57:02;;;;;;;116.47;53.78;;;-3.00;99.90;;;;;;2095979;28;20032;-69
2022/12/16 01:58:09;;;;;;;112.32;52.28;;;-3.00;99.90;;;;;;2095758;28;20028;-69
2022/12/16 01:59:13;;;;;;;107.97;51.40;;;-3.00;99.90;;;;;;2095291;28;20036;-69
2022/12/16 02:00:15;;;;;;;109.20;51.55;;;-3.00;99.90;;;;;;2095253;28;20040;-70
2022/12/16 02:01:16;;;;;;;120.00;55.42;;;-3.00;99.90;;;;;;2095921;28;20036;-73
2022/12/16 02:02:16;;;;;;;114.93;53.67;;;-2.90;99.90;;;;;;2096224;28;20044;-71
2022/12/16 02:03:17;;;;;;;112.40;53.00;;;-2.90;99.90;;;;;;2096089;28;20482;-70
2022/12/16 02:04:18;;;;;;;113.30;53.30;;;-2.90;99.90;;;;;;2095370;28;20060;-70
2022/12/16 02:05:20;;;;;;;116.85;54.65;;;-2.90;99.90;;;;;;2095681;28;20037;-70
2022/12/16 02:06:21;;;;;;;114.40;52.53;;;-2.90;99.90;;;;;;2096117;28;20032;-70
2022/12/16 02:07:21;;;;;;;110.25;51.22;;;-2.90;99.90;;;;;;2095198;28;20063;-70
2022/12/16 02:08:23;;;;;;;112.68;52.75;;;-2.90;99.90;;;;;;2095366;28;20083;-69
2022/12/16 02:09:23;;;;;;;109.00;51.35;;;-2.90;99.90;;;;;;2095403;28;20024;-69
2022/12/16 02:10:33;;;;;;;109.88;51.85;;;-2.90;99.90;;;;;;2096123;28;20025;-69
2022/12/16 02:11:54;;;;;;;113.65;52.45;;;-2.90;99.90;;;;;;2095853;28;20028;-69
2022/12/16 02:13:11;;;;;;;119.15;52.70;;;-2.90;99.90;;;;;;2095454;28;20039;-69
2022/12/16 02:14:35;;;;;;;123.55;55.85;;;-2.90;99.90;;;;;;2096139;28;20029;-70
2022/12/16 02:15:55;;;;;;;129.85;57.42;;;-2.90;99.90;;;;;;2096841;28;20032;-69
2022/12/16 02:17:06;;;;;;;121.07;54.78;;;-3.00;99.90;;;;;;2087450;28;20025;-69
2022/12/16 02:18:27;;;;;;;121.32;55.88;;;-3.00;99.90;;;;;;2088671;28;20032;-70
2022/12/16 02:19:49;;;;;;;119.35;53.72;;;-3.00;99.90;;;;;;2095156;28;20490;-69
2022/12/16 02:21:27;;;;;;;110.15;52.17;;;-3.00;99.90;;;;;;2095134;28;20032;-69
2022/12/16 02:22:36;;;;;;;113.45;52.38;;;-3.00;99.90;;;;;;2089813;28;20035;-70
2022/12/16 02:23:42;;;;;;;118.13;53.95;;;-3.00;99.90;;;;;;2083872;28;20468;-70
2022/12/16 02:25:09;;;;;;;121.25;55.30;;;-3.00;99.90;;;;;;2081015;28;20041;-69
2022/12/16 02:26:28;;;;;;;113.25;53.50;;;-3.00;99.90;;;;;;2092591;28;20037;-69
2022/12/16 02:27:59;;;;;;;122.22;53.97;;;-3.10;99.90;;;;;;2094616;28;20032;-69
2022/12/16 02:29:02;;;;;;;;;;;-3.00;99.90;;;;;;2095620;28;20037;-69
2022/12/16 02:30:36;;;;;;;113.05;50.33;;;-3.00;99.90;;;;;;2095164;28;19908;-69
2022/12/16 02:32:05;;;;;;;114.25;53.05;;;-3.00;99.90;;;;;;2095654;28;20029;-70
2022/12/16 02:33:24;;;;;;;116.55;52.63;;;-3.10;99.90;;;;;;2094706;28;20512;-69
2022/12/16 02:34:30;;;;;;;106.97;51.08;;;-3.10;99.90;;;;;;2095105;28;20582;-69
2022/12/16 02:35:55;;;;;;;112.70;52.33;;;-3.10;99.90;;;;;;2087283;28;20631;-70
2022/12/16 02:37:11;;;;;;;111.80;52.53;;;-3.10;99.90;;;;;;2086995;28;20036;-70
2022/12/16 02:38:31;;;;;;;114.32;52.30;;;-3.10;99.90;;;;;;2086135;28;20025;-70
2022/12/16 02:39:38;;;;;;;119.40;52.75;;;-3.10;99.90;;;;;;2087343;28;20117;-69
2022/12/16 02:41:01;;;;;;;118.63;54.83;;;-3.10;99.90;;;;;;2087095;28;20029;-70
2022/12/16 02:42:18;;;;;;;115.13;53.25;;;-3.10;99.90;;;;;;2086791;28;20025;-70
2022/12/16 02:43:49;;;;;;;115.28;54.28;;;-3.10;99.90;;;;;;2080588;28;20404;-70
2022/12/16 02:44:56;;;;;;;123.30;56.10;;;-3.10;99.90;;;;;;2087162;28;20541;-70
2022/12/16 02:45:57;;;;;;;114.82;53.33;;;-3.10;99.90;;;;;;2087214;28;20422;-70
2022/12/16 02:46:58;;;;;;;123.45;56.05;;;-3.10;99.90;;;;;;2087357;28;20029;-69
2022/12/16 02:47:59;;;;;;;114.63;55.28;;;-3.10;99.90;;;;;;2086898;28;20101;-69
2022/12/16 02:49:27;;;;;;;128.63;58.13;;;-3.10;99.90;;;;;;2087290;28;20220;-70
2022/12/16 02:50:42;;;;;;;128.45;56.50;;;-3.10;99.90;;;;;;2086866;28;20040;-71
2022/12/16 02:51:44;;;;;;;125.47;58.17;;;-3.20;99.90;;;;;;2087310;28;20060;-70
2022/12/16 02:52:44;;;;;;;124.85;57.10;;;-3.20;99.90;;;;;;2087160;28;20025;-70
2022/12/16 02:53:46;;;;;;;124.78;57.65;;;-3.20;99.90;;;;;;2087252;28;20032;-70
2022/12/16 02:54:50;;;;;;;124.32;56.35;;;-3.20;99.90;;;;;;2086684;28;20028;-70
2022/12/16 02:56:03;;;;;;;117.50;55.33;;;-3.20;99.90;;;;;;2078776;28;20029;-70
2022/12/16 02:57:26;;;;;;;121.13;55.17;;;-3.20;99.90;;;;;;2086764;28;20033;-70
2022/12/16 02:58:50;;;;;;;118.72;53.80;;;-3.20;99.90;;;;;;2087148;28;20037;-70
2022/12/16 03:00:07;;;;;;;118.15;53.33;;;-3.20;99.90;;;;;;2086926;28;20029;-70
2022/12/16 03:01:39;;;;;;;110.00;50.83;;;-3.20;99.90;;;;;;2087175;28;20037;-70
2022/12/16 03:03:00;;;;;;;112.20;51.78;;;-3.20;99.90;;;;;;2087254;28;20140;-70
2022/12/16 03:04:16;;;;;;;106.32;48.95;;;-3.10;99.90;;;;;;2086472;28;20159;-70
2022/12/16 03:05:51;;;;;;;112.82;50.78;;;-3.10;99.90;;;;;;2086963;28;20053;-70
2022/12/16 03:06:54;;;;;;;117.07;52.25;;;-3.10;99.90;;;;;;2086094;28;20511;-70
2022/12/16 03:07:58;;;;;;;114.32;54.13;;;-3.10;99.90;;;;;;2087847;28;20025;-70
2022/12/16 03:09:04;;;;;;;113.50;51.88;;;-3.10;99.90;;;;;;2087725;28;20453;-70
2022/12/16 03:10:09;;;;;;;114.00;52.30;;;-3.10;99.90;;;;;;2089103;28;20055;-70
2022/12/16 03:11:10;;;;;;;110.05;51.38;;;-3.10;99.90;;;;;;2089559;28;20079;-71
2022/12/16 03:12:15;;;;;;;108.35;50.33;;;-3.10;99.90;;;;;;2090338;28;20029;-71
2022/12/16 03:13:18;;;;;;;113.80;53.13;;;-3.10;99.90;;;;;;2090562;28;20032;-71
2022/12/16 03:14:24;;;;;;;106.57;51.38;;;-3.10;99.90;;;;;;2090637;28;20044;-70
2022/12/16 03:15:27;;;;;;;108.70;51.63;;;-3.10;99.90;;;;;;2089899;28;20399;-70
2022/12/16 03:16:31;;;;;;;108.30;50.90;;;-3.10;99.90;;;;;;2090339;28;20021;-70
2022/12/16 03:17:32;;;;;;;116.07;55.05;;;-3.10;99.90;;;;;;2090369;28;20497;-71
2022/12/16 03:18:37;;;;;;;116.88;54.40;;;-3.10;99.90;;;;;;2090493;28;20021;-70
2022/12/16 03:19:42;;;;;;;118.65;54.55;;;-3.10;99.90;;;;;;2090235;28;20116;-70
2022/12/16 03:20:54;;;;;;;112.30;53.00;;;-3.10;99.90;;;;;;2090157;28;20043;-70
2022/12/16 03:22:03;;;;;;;109.40;51.60;;;-3.00;99.90;;;;;;2090456;28;20036;-70
2022/12/16 03:23:12;;;;;;;117.90;52.88;;;-3.00;99.90;;;;;;2089487;28;20033;-70
2022/12/16 03:24:14;;;;;;;118.10;54.25;;;-3.00;99.90;;;;;;2090036;28;20043;-71
2022/12/16 03:25:15;;;;;;;116.80;54.45;;;-3.00;99.90;;;;;;2090387;28;20554;-71
2022/12/16 03:26:36;;;;;;;113.28;53.60;;;-3.00;99.90;;;;;;2090681;28;20085;-71
2022/12/16 03:27:48;;;;;;;106.85;50.25;;;-3.00;99.90;;;;;;2090881;28;20402;-71
2022/12/16 03:29:00;;;;;;;107.22;51.70;;;-3.10;99.90;;;;;;2091484;28;20029;-71
2022/12/16 03:30:31;;;;;;;109.85;51.03;;;-3.10;99.90;;;;;;2091507;28;20025;-70
2022/12/16 03:31:47;;;;;;;110.43;51.10;;;-3.10;99.90;;;;;;2088827;28;20031;-71
2022/12/16 03:32:57;;;;;;;103.55;48.85;;;-3.00;99.90;;;;;;2088604;28;20086;-70
2022/12/16 03:34:23;;;;;;;104.10;49.22;;;-3.00;99.90;;;;;;2088326;28;20029;-70
2022/12/16 03:35:33;;;;;;;105.25;48.40;;;-3.00;99.90;;;;;;2085852;28;20045;-71
2022/12/16 03:36:36;;;;;;;109.72;50.22;;;-3.00;99.90;;;;;;2089264;28;20017;-70
2022/12/16 03:37:38;;;;;;;106.25;51.40;;;-3.00;99.90;;;;;;2088990;28;20119;-70
2022/12/16 03:38:40;;;;;;;112.47;52.30;;;-3.00;99.90;;;;;;2088980;28;20526;-70
2022/12/16 03:39:46;;;;;;;112.20;52.03;;;-3.00;99.90;;;;;;2089006;28;20033;-71
2022/12/16 03:40:48;;;;;;;109.13;52.40;;;-3.10;99.90;;;;;;2088343;28;20087;-70
2022/12/16 03:41:55;;;;;;;106.65;51.67;;;-3.10;99.90;;;;;;2088395;28;20660;-70
2022/12/16 03:42:57;;;;;;;106.13;51.22;;;-3.10;99.90;;;;;;2088890;28;20722;-70
2022/12/16 03:43:57;;;;;;;108.45;52.15;;;-3.10;99.90;;;;;;2088838;28;20044;-70
2022/12/16 03:44:58;;;;;;;112.18;52.33;;;-3.00;99.90;;;;;;2088961;28;20117;-70
2022/12/16 03:46:03;;;;;;;106.50;51.35;;;-3.10;99.90;;;;;;2088833;28;20027;-70
2022/12/16 03:47:04;;;;;;;105.72;51.75;;;-3.10;99.90;;;;;;2089158;28;20021;-70
2022/12/16 03:48:07;;;;;;;114.10;52.92;;;-3.10;99.90;;;;;;2088907;28;20070;-70
2022/12/16 03:49:08;;;;;;;108.57;51.97;;;-3.10;99.90;;;;;;2088803;28;20159;-70
2022/12/16 03:50:08;;;;;;;104.28;49.95;;;-3.10;99.90;;;;;;2088628;28;20033;-69
2022/12/16 03:51:09;;;;;;;102.30;50.47;;;-3.10;99.90;;;;;;2088661;28;20095;-69
2022/12/16 03:52:10;;;;;;;102.53;50.30;;;-3.00;99.90;;;;;;2088254;28;20025;-70
2022/12/16 03:53:10;;;;;;;105.25;52.28;;;-3.10;99.90;;;;;;2088071;28;20020;-69
2022/12/16 03:54:11;;;;;;;106.93;50.35;;;-3.10;99.90;;;;;;2088067;28;20074;-69
2022/12/16 03:55:12;;;;;;;108.40;52.08;;;-3.00;99.90;;;;;;2088355;28;20043;-69
2022/12/16 03:56:13;;;;;;;109.13;51.03;;;-3.00;99.90;;;;;;2088845;28;20033;-69
2022/12/16 03:57:13;;;;;;;103.40;50.08;;;-3.00;99.90;;;;;;2089157;28;20475;-69
2022/12/16 03:58:14;;;;;;;102.00;49.35;;;-3.10;99.90;;;;;;2089195;28;20025;-70
2022/12/16 03:59:15;;;;;;;105.05;50.83;;;-3.10;99.90;;;;;;2092283;28;20044;-70
2022/12/16 04:00:16;;;;;;;109.25;51.33;;;-3.10;99.90;;;;;;2095239;28;20036;-69
2022/12/16 04:01:17;;;;;;;100.88;49.30;;;-3.10;99.90;;;;;;2093543;28;20044;-69
2022/12/16 04:02:17;;;;;;;102.13;49.70;;;-3.10;99.90;;;;;;2088418;28;20522;-68
2022/12/16 04:03:21;;;;;;;102.15;50.13;;;-3.00;99.90;;;;;;2088650;28;20033;-68
2022/12/16 04:04:23;;;;;;;103.07;50.15;;;-3.00;99.90;;;;;;2087838;28;20063;-68
2022/12/16 04:05:23;;;;;;;108.07;50.83;;;-3.00;99.90;;;;;;2094450;28;20123;-69
2022/12/16 04:06:24;;;;;;;104.95;50.95;;;-3.10;99.90;;;;;;2096204;28;20028;-69
2022/12/16 04:07:25;;;;;;;106.47;50.25;;;-3.00;99.90;;;;;;2087549;28;20072;-69
2022/12/16 04:08:25;;;;;;;102.63;49.63;;;-3.00;99.90;;;;;;2087936;28;20028;-69
2022/12/16 04:09:26;;;;;;;101.32;48.03;;;-3.00;99.90;;;;;;2096185;28;20020;-69
2022/12/16 04:25:23;;;;;;;93.63;46.33;;;-3.00;99.90;;;;;;2096883;28;20131;-69
2022/12/16 04:26:23;;;;;;;94.07;45.00;;;-3.00;99.90;;;;;;2096292;28;20558;-69
2022/12/16 04:27:24;;;;;;;91.65;45.20;;;-3.00;99.90;;;;;;2095850;28;20025;-69
2022/12/16 04:28:25;;;;;;;101.93;47.70;;;-3.00;99.90;;;;;;2096930;28;20035;-69
2022/12/16 04:29:25;;;;;;;97.90;45.90;;;-3.00;99.90;;;;;;2096857;28;20459;-69
2022/12/16 04:30:29;;;;;;;92.70;45.28;;;-3.00;99.90;;;;;;2097040;28;20033;-69
2022/12/16 04:31:29;;;;;;;93.88;45.17;;;-3.00;99.90;;;;;;2096968;28;20033;-70
